Weather at Luleå Airport

Public forecast

Using degrees Celsius for public forecast. Weather courtesy of forecast.io.

Current aviation weather report (METAR) for Luleå Airport

Retrieved 2020/11/29 04:20 UTC (0 seconds ago):

ESPA 290420Z AUTO 24004KT 9999 FEW009/// M03/M04 Q1027

Aviation forecast (TAF) for Luleå Airport

Forecast is more than 12 hours old.

Retrieved 2019/02/04 06:27 UTC (2 years ago):

TAF TAF ESPA 040820Z 0406/0418 01010KT 2000 SN VV020 TEMPO 0409/0414 1000 +SN DRSN VV009 BECMG 0414/0416 32010KT 5000 -SN VV030 RMK MIL